Terminal Aerodrome Forecast
Issued by NWS Cleveland, OH

Home | Current Version | Previous Version | Graphics & Text | Print | Product List | Glossary Off
Versions: 1 2 3 4 5 6 7 8 9 10 11 12 13 14 15 16 17 18 19 20

000
FTUS41 KCLE 242102 AAA
TAFCAK
TAF AMD
KCAK 242102Z 2421/2518 30010KT 6SM BR OVC007
      TEMPO 2421/2423 2SM -RA BR OVC004
     FM242300 28008KT P6SM OVC007
     FM250200 26006KT P6SM OVC012
     FM251100 18006KT P6SM OVC015
     FM251500 18010KT P6SM SCT015 BKN100=

USA.gov is the U.S. government's official web portal to all federal, state and local government web resources and services.